Time;durP1;ratioP1;P1;durP2;ratioP2;P2;SDS_P1;SDS_P2;PMS_P1;PMS_P2;Temp;Humidity;BMP_temperature;BMP_pressure;BME280_temperature;BME280_humidity;BME280_pressure;Samples;Min_cycle;Max_cycle;Signal;HPM_P1;HPM_P2
2023/01/13 00:00:58;;;;;;;9.60;9.10;;;;;;;;;;5120257;28;20051;-66
2023/01/13 00:03:23;;;;;;;9.25;8.85;;;;;;;;;;5096964;28;20047;-67
2023/01/13 00:05:49;;;;;;;9.10;8.70;;;;;;;;;;5105358;28;20024;-68
2023/01/13 00:08:14;;;;;;;9.25;8.85;;;;;;;;;;5105978;28;20076;-68
2023/01/13 00:10:39;;;;;;;9.07;8.68;;;;;;;;;;5100399;28;20121;-68
2023/01/13 00:13:05;;;;;;;9.60;9.10;;;;;;;;;;5104590;28;20027;-68
2023/01/13 00:15:31;;;;;;;8.90;8.50;;;;;;;;;;5106435;28;20027;-68
2023/01/13 00:17:56;;;;;;;9.05;8.65;;;;;;;;;;5102351;28;20102;-67
2023/01/13 00:20:22;;;;;;;8.75;8.35;;;;;;;;;;5098251;28;20539;-68
2023/01/13 00:22:47;;;;;;;9.13;8.73;;;;;;;;;;5104508;28;20020;-68
2023/01/13 00:25:12;;;;;;;9.68;9.18;;;;;;;;;;5103143;28;20018;-68
2023/01/13 00:27:38;;;;;;;9.50;9.00;;;;;;;;;;5099873;28;20140;-67
2023/01/13 00:30:04;;;;;;;9.77;9.27;;;;;;;;;;5105274;28;20024;-68
2023/01/13 00:32:29;;;;;;;9.13;8.73;;;;;;;;;;5103747;28;20463;-66
2023/01/13 00:34:55;;;;;;;9.15;8.75;;;;;;;;;;5099055;28;20020;-67
2023/01/13 00:37:20;;;;;;;9.27;8.88;;;;;;;;;;5103197;28;20107;-67
2023/01/13 00:39:46;;;;;;;9.38;8.88;;;;;;;;;;5108697;28;20012;-68
2023/01/13 00:44:55;;;;;;;10.63;10.02;;;;;;;;;;5101142;28;20089;-70
2023/01/13 00:47:20;;;;;;;9.80;9.30;;;;;;;;;;5101218;28;20031;-67
2023/01/13 00:49:46;;;;;;;9.13;8.73;;;;;;;;;;5100296;28;20394;-67
2023/01/13 00:52:12;;;;;;;9.82;9.32;;;;;;;;;;5095483;28;20020;-67
2023/01/13 00:54:37;;;;;;;9.48;8.98;;;;;;;;;;5102181;28;20102;-66
2023/01/13 00:57:03;;;;;;;9.50;9.02;;;;;;;;;;5085435;28;20052;-67
2023/01/13 00:59:28;;;;;;;9.30;8.88;;;;;;;;;;5101662;28;20020;-68
2023/01/13 01:01:54;;;;;;;9.13;8.73;;;;;;;;;;5101321;28;20388;-68
2023/01/13 01:04:19;;;;;;;8.75;8.35;;;;;;;;;;5096841;28;20027;-67
2023/01/13 01:06:44;;;;;;;9.27;8.88;;;;;;;;;;5104061;28;20066;-67
2023/01/13 01:09:12;;;;;;;9.88;9.38;;;;;;;;;;5107891;28;20039;-68
2023/01/13 01:11:37;;;;;;;8.73;8.32;;;;;;;;;;5103840;28;20019;-68
2023/01/13 01:14:03;;;;;;;9.77;9.27;;;;;;;;;;5101083;28;20153;-68
2023/01/13 01:16:29;;;;;;;9.43;9.02;;;;;;;;;;5103698;28;20076;-68
2023/01/13 01:18:55;;;;;;;9.38;8.98;;;;;;;;;;5081523;28;20088;-68
2023/01/13 01:21:21;;;;;;;9.80;9.30;;;;;;;;;;5087387;28;20016;-68
2023/01/13 01:23:46;;;;;;;9.00;8.60;;;;;;;;;;5104771;28;20050;-67
2023/01/13 01:26:13;;;;;;;9.98;9.48;;;;;;;;;;5100581;28;20020;-68
2023/01/13 01:28:38;;;;;;;9.10;8.70;;;;;;;;;;5103723;28;20115;-67
2023/01/13 01:31:10;;;;;;;9.57;9.07;;;;;;;;;;5099580;28;20099;-68
2023/01/13 01:33:35;;;;;;;9.88;9.38;;;;;;;;;;5100818;28;20091;-68
2023/01/13 01:36:01;;;;;;;9.98;9.48;;;;;;;;;;5101236;28;20135;-68
2023/01/13 01:38:26;;;;;;;10.00;9.50;;;;;;;;;;5081232;28;20031;-68
2023/01/13 01:40:52;;;;;;;9.13;8.73;;;;;;;;;;5099349;28;20025;-68
2023/01/13 01:46:03;;;;;;;9.40;8.90;;;;;;;;;;5100146;28;20042;-68
2023/01/13 01:48:31;;;;;;;9.68;9.18;;;;;;;;;;5101351;28;20111;-69
2023/01/13 01:50:56;;;;;;;9.00;8.60;;;;;;;;;;5098706;28;20120;-67
2023/01/13 01:53:23;;;;;;;9.60;9.10;;;;;;;;;;5077928;28;20178;-69
2023/01/13 01:55:48;;;;;;;9.38;8.90;;;;;;;;;;5095162;28;20015;-67
2023/01/13 01:58:20;;;;;;;9.70;9.20;;;;;;;;;;5095066;28;20038;-67
2023/01/13 02:00:45;;;;;;;9.40;9.00;;;;;;;;;;5097283;28;20011;-67
2023/01/13 02:03:10;;;;;;;9.93;9.43;;;;;;;;;;5078387;28;20089;-67
2023/01/13 02:05:37;;;;;;;9.60;9.10;;;;;;;;;;5107153;28;20023;-67
2023/01/13 02:08:03;;;;;;;9.55;9.07;;;;;;;;;;5101153;28;20023;-68
2023/01/13 02:10:29;;;;;;;9.70;9.20;;;;;;;;;;5101100;28;20028;-67
2023/01/13 02:12:55;;;;;;;9.30;8.90;;;;;;;;;;5083773;28;20110;-68
2023/01/13 02:15:24;;;;;;;9.73;9.23;;;;;;;;;;5097783;28;20087;-67
2023/01/13 02:17:52;;;;;;;9.93;9.43;;;;;;;;;;5099733;28;20030;-68
2023/01/13 02:20:20;;;;;;;9.68;9.18;;;;;;;;;;5099549;28;20383;-67
2023/01/13 02:24:52;;;;;;;9.60;9.13;;;;;;;;;;5096105;28;20008;-67
2023/01/13 02:25:57;;;;;;;9.15;8.75;;;;;;;;;;5094790;28;20077;-67
2023/01/13 02:28:32;;;;;;;8.80;8.40;;;;;;;;;;5096488;28;20011;-67
2023/01/13 02:33:51;;;;;;;9.65;9.18;;;;;;;;;;5101993;28;20411;-69
2023/01/13 02:36:25;;;;;;;9.63;9.13;;;;;;;;;;5078412;28;20015;-68
2023/01/13 02:38:56;;;;;;;9.20;8.80;;;;;;;;;;5101308;28;20091;-68
2023/01/13 02:44:26;;;;;;;9.15;8.75;;;;;;;;;;5092840;28;20038;-68
2023/01/13 02:46:54;;;;;;;8.80;8.40;;;;;;;;;;5099072;28;20451;-68
2023/01/13 02:49:49;;;;;;;9.25;8.85;;;;;;;;;;5096791;28;20020;-68
2023/01/13 02:52:26;;;;;;;9.52;9.07;;;;;;;;;;5079374;28;20491;-66
2023/01/13 02:54:54;;;;;;;9.63;9.13;;;;;;;;;;5094491;28;20388;-68
2023/01/13 02:57:20;;;;;;;9.70;9.20;;;;;;;;;;5101131;28;20092;-67
2023/01/13 02:59:46;;;;;;;9.30;8.90;;;;;;;;;;5094338;28;20475;-65
2023/01/13 03:02:14;;;;;;;9.73;9.23;;;;;;;;;;5101288;28;20019;-67
2023/01/13 03:04:47;;;;;;;9.20;8.80;;;;;;;;;;5100362;28;20102;-67
2023/01/13 03:07:25;;;;;;;9.77;9.27;;;;;;;;;;5099618;28;20024;-67
2023/01/13 03:09:58;;;;;;;9.88;9.38;;;;;;;;;;5093184;28;20034;-67
2023/01/13 03:12:23;;;;;;;9.23;8.82;;;;;;;;;;5103830;28;20337;-67
2023/01/13 03:14:48;;;;;;;9.02;8.63;;;;;;;;;;5076669;28;20115;-68
2023/01/13 03:17:25;;;;;;;9.20;8.80;;;;;;;;;;5095391;28;20063;-67
2023/01/13 03:20:11;;;;;;;9.27;8.88;;;;;;;;;;5101068;28;20120;-68
2023/01/13 03:22:41;;;;;;;9.52;9.02;;;;;;;;;;5102438;28;20016;-68
2023/01/13 03:25:09;;;;;;;10.95;10.35;;;;;;;;;;5096900;28;20035;-67
2023/01/13 03:27:40;;;;;;;9.70;9.20;;;;;;;;;;5100688;28;20096;-68
2023/01/13 03:30:10;;;;;;;9.68;9.18;;;;;;;;;;5096812;28;20027;-68
2023/01/13 03:32:38;;;;;;;10.30;9.70;;;;;;;;;;5098066;28;20054;-68
2023/01/13 03:35:03;;;;;;;10.18;9.68;;;;;;;;;;5100034;28;20716;-67
2023/01/13 03:37:34;;;;;;;9.88;9.38;;;;;;;;;;5087095;28;20024;-67
2023/01/13 03:40:02;;;;;;;9.60;9.10;;;;;;;;;;5080681;28;20016;-68
2023/01/13 03:42:29;;;;;;;9.52;9.10;;;;;;;;;;5104252;28;20331;-67
2023/01/13 03:44:59;;;;;;;9.95;9.45;;;;;;;;;;5105854;28;20034;-67
2023/01/13 03:47:37;;;;;;;10.65;10.05;;;;;;;;;;5099506;28;20028;-67
2023/01/13 03:50:22;;;;;;;9.80;9.30;;;;;;;;;;5098375;28;20053;-67
2023/01/13 03:52:50;;;;;;;9.52;9.13;;;;;;;;;;5097945;28;20116;-68
2023/01/13 03:55:17;;;;;;;9.85;9.35;;;;;;;;;;5105324;28;20015;-68
2023/01/13 03:57:48;;;;;;;9.98;9.48;;;;;;;;;;5103776;28;20016;-68
2023/01/13 04:00:14;;;;;;;10.27;9.75;;;;;;;;;;5097355;28;20423;-66
2023/01/13 04:02:46;;;;;;;9.95;9.45;;;;;;;;;;5089640;28;20047;-67
2023/01/13 04:05:11;;;;;;;10.73;10.13;;;;;;;;;;5080326;28;20069;-67
2023/01/13 04:07:48;;;;;;;9.68;9.20;;;;;;;;;;5094976;28;20495;-67
2023/01/13 04:10:17;;;;;;;10.65;10.05;;;;;;;;;;5096944;28;20020;-67
2023/01/13 04:13:01;;;;;;;9.30;8.90;;;;;;;;;;5100419;28;20089;-67
2023/01/13 04:15:35;;;;;;;9.43;9.02;;;;;;;;;;5089476;28;20027;-67
2023/01/13 04:18:01;;;;;;;9.73;9.23;;;;;;;;;;5100809;28;20028;-67
2023/01/13 04:20:26;;;;;;;9.68;9.18;;;;;;;;;;5104068;28;20022;-68
2023/01/13 04:22:51;;;;;;;9.38;8.98;;;;;;;;;;5106605;28;20128;-67
2023/01/13 04:25:16;;;;;;;10.18;9.68;;;;;;;;;;5100348;28;20019;-67
2023/01/13 04:27:42;;;;;;;9.82;9.32;;;;;;;;;;5104983;28;20027;-67
2023/01/13 04:30:07;;;;;;;10.35;9.85;;;;;;;;;;5093181;28;20027;-68
2023/01/13 04:32:33;;;;;;;10.15;9.65;;;;;;;;;;5102146;28;20114;-67
2023/01/13 04:34:58;;;;;;;10.38;9.82;;;;;;;;;;5088719;28;20027;-67
2023/01/13 04:37:23;;;;;;;9.52;9.13;;;;;;;;;;5096645;28;20118;-68
2023/01/13 04:39:48;;;;;;;9.55;9.13;;;;;;;;;;5100470;28;20540;-68
2023/01/13 04:42:14;;;;;;;9.50;9.10;;;;;;;;;;5100373;28;20029;-67
2023/01/13 04:44:39;;;;;;;9.77;9.27;;;;;;;;;;5109094;28;20019;-68
2023/01/13 04:47:04;;;;;;;10.30;9.80;;;;;;;;;;5102139;28;20094;-68
2023/01/13 04:49:30;;;;;;;11.45;10.75;;;;;;;;;;5091650;28;20027;-68
2023/01/13 04:51:55;;;;;;;10.48;9.88;;;;;;;;;;5090319;28;20040;-67
2023/01/13 04:54:20;;;;;;;10.35;9.85;;;;;;;;;;5095392;28;20044;-67
2023/01/13 04:56:46;;;;;;;10.95;10.35;;;;;;;;;;5095028;28;20464;-67
2023/01/13 04:59:12;;;;;;;11.20;10.50;;;;;;;;;;5094275;28;20020;-67
2023/01/13 05:01:37;;;;;;;10.25;9.73;;;;;;;;;;5096034;28;20016;-69
2023/01/13 05:04:03;;;;;;;10.43;9.93;;;;;;;;;;5100102;28;20015;-67
2023/01/13 05:06:29;;;;;;;10.52;10.00;;;;;;;;;;5094365;28;20024;-69
2023/01/13 05:08:54;;;;;;;11.02;10.43;;;;;;;;;;5098965;28;20116;-68
2023/01/13 05:17:00;;;;;;;12.27;11.48;;;;;;;;;;5098055;28;20116;-69
2023/01/13 05:19:38;;;;;;;10.13;9.63;;;;;;;;;;5093890;28;20016;-68
2023/01/13 05:27:31;;;;;;;11.15;10.48;;;;;;;;;;5094972;28;20054;-68
2023/01/13 05:29:56;;;;;;;10.30;9.73;;;;;;;;;;5100440;28;20466;-67
2023/01/13 05:32:22;;;;;;;9.18;8.77;;;;;;;;;;5072933;28;20065;-67
2023/01/13 05:34:47;;;;;;;9.80;9.30;;;;;;;;;;5097442;28;20039;-68
2023/01/13 05:37:13;;;;;;;9.88;9.38;;;;;;;;;;5102897;28;20107;-67
2023/01/13 05:45:06;;;;;;;10.00;9.50;;;;;;;;;;5098248;28;20435;-67
2023/01/13 05:47:32;;;;;;;11.50;10.80;;;;;;;;;;5098646;28;20120;-67
2023/01/13 05:49:59;;;;;;;10.65;10.07;;;;;;;;;;5083315;28;20031;-68
2023/01/13 05:52:24;;;;;;;9.80;9.30;;;;;;;;;;5098707;28;20496;-67
2023/01/13 05:54:50;;;;;;;10.15;9.65;;;;;;;;;;5099074;28;20044;-66
2023/01/13 05:57:15;;;;;;;10.32;9.75;;;;;;;;;;5103575;28;20020;-66
2023/01/13 05:59:41;;;;;;;11.77;11.07;;;;;;;;;;5100976;28;20380;-66
2023/01/13 06:02:06;;;;;;;9.85;9.35;;;;;;;;;;5101199;28;20471;-67
2023/01/13 06:04:31;;;;;;;10.85;10.25;;;;;;;;;;5089279;28;20024;-68
2023/01/13 06:06:56;;;;;;;11.25;10.55;;;;;;;;;;5090528;28;20062;-69
2023/01/13 06:09:22;;;;;;;10.63;10.02;;;;;;;;;;5077342;28;20486;-68
2023/01/13 06:11:47;;;;;;;10.77;10.18;;;;;;;;;;5095158;28;20103;-70
2023/01/13 06:14:12;;;;;;;10.27;9.77;;;;;;;;;;5098456;28;20015;-69
2023/01/13 06:16:38;;;;;;;9.90;9.40;;;;;;;;;;5100600;28;20387;-70
2023/01/13 06:19:07;;;;;;;10.88;10.27;;;;;;;;;;5103129;28;20034;-69
2023/01/13 06:21:33;;;;;;;10.98;10.38;;;;;;;;;;5093419;28;20089;-71
2023/01/13 06:23:58;;;;;;;10.93;10.32;;;;;;;;;;5091738;28;20057;-71
2023/01/13 06:26:23;;;;;;;10.10;9.60;;;;;;;;;;5092587;28;20115;-71
2023/01/13 06:28:49;;;;;;;10.20;9.70;;;;;;;;;;5099966;28;20027;-70
2023/01/13 06:31:14;;;;;;;10.43;9.85;;;;;;;;;;5103116;28;20023;-70
2023/01/13 06:33:43;;;;;;;10.85;10.25;;;;;;;;;;5101489;28;20054;-71
2023/01/13 06:36:11;;;;;;;9.98;9.48;;;;;;;;;;5099482;28;20539;-71
2023/01/13 06:38:38;;;;;;;10.70;10.10;;;;;;;;;;5096999;28;20024;-71
2023/01/13 06:41:03;;;;;;;10.50;9.90;;;;;;;;;;5090266;28;20035;-71
2023/01/13 06:43:29;;;;;;;10.63;10.02;;;;;;;;;;5091426;28;20025;-71
2023/01/13 06:45:55;;;;;;;10.75;10.15;;;;;;;;;;5091993;28;20024;-72
2023/01/13 06:48:24;;;;;;;10.35;9.85;;;;;;;;;;5090881;28;20016;-70
2023/01/13 06:50:50;;;;;;;10.93;10.32;;;;;;;;;;5092762;28;20450;-71
2023/01/13 06:53:16;;;;;;;11.27;10.60;;;;;;;;;;5093238;28;20132;-70
2023/01/13 06:55:41;;;;;;;9.82;9.32;;;;;;;;;;5092491;28;20051;-70
2023/01/13 06:58:06;;;;;;;10.23;9.73;;;;;;;;;;5095684;28;20491;-69
2023/01/13 07:00:35;;;;;;;10.30;9.77;;;;;;;;;;5103922;28;20077;-70
2023/01/13 07:03:11;;;;;;;10.25;9.75;;;;;;;;;;5085966;28;20103;-71
2023/01/13 07:05:36;;;;;;;10.05;9.55;;;;;;;;;;5072098;28;20020;-71
2023/01/13 07:08:01;;;;;;;10.07;9.57;;;;;;;;;;5098457;28;20038;-68
2023/01/13 07:10:27;;;;;;;11.20;10.57;;;;;;;;;;5091945;28;20021;-67
2023/01/13 07:15:36;;;;;;;11.00;10.40;;;;;;;;;;5093289;28;20537;-71
2023/01/13 07:18:01;;;;;;;10.15;9.65;;;;;;;;;;5103528;28;20041;-70
2023/01/13 07:20:27;;;;;;;11.35;10.70;;;;;;;;;;5097331;28;20512;-71
2023/01/13 07:22:53;;;;;;;9.80;9.30;;;;;;;;;;5103006;28;20016;-68
2023/01/13 07:25:19;;;;;;;11.45;10.75;;;;;;;;;;5095250;28;20093;-70
2023/01/13 07:27:44;;;;;;;9.52;9.02;;;;;;;;;;5079851;28;20424;-69
2023/01/13 07:30:10;;;;;;;9.50;9.00;;;;;;;;;;5096871;28;20417;-68
2023/01/13 07:32:35;;;;;;;9.75;9.25;;;;;;;;;;5099454;28;20070;-69
2023/01/13 07:35:04;;;;;;;9.70;9.20;;;;;;;;;;5100387;28;20442;-70
2023/01/13 07:37:33;;;;;;;9.57;9.07;;;;;;;;;;5099357;28;20016;-69
2023/01/13 07:39:58;;;;;;;9.38;8.98;;;;;;;;;;5098640;28;20040;-68
2023/01/13 07:45:07;;;;;;;8.88;8.45;;;;;;;;;;5095647;28;20083;-68
2023/01/13 07:47:33;;;;;;;9.18;8.68;;;;;;;;;;5103524;28;20106;-69
2023/01/13 07:49:58;;;;;;;8.80;8.40;;;;;;;;;;5080511;28;20028;-70
2023/01/13 07:52:23;;;;;;;8.65;8.25;;;;;;;;;;5095297;28;20127;-69
2023/01/13 07:54:49;;;;;;;8.70;8.30;;;;;;;;;;5054144;28;20484;-70
2023/01/13 07:57:14;;;;;;;10.13;9.63;;;;;;;;;;5059438;28;20031;-68
2023/01/13 07:59:39;;;;;;;9.20;8.80;;;;;;;;;;5058929;28;20025;-69
2023/01/13 08:02:05;;;;;;;9.00;8.60;;;;;;;;;;5061929;28;20031;-69
2023/01/13 08:04:30;;;;;;;9.00;8.60;;;;;;;;;;5055485;28;20392;-70
2023/01/13 08:06:55;;;;;;;9.13;8.73;;;;;;;;;;5060277;28;20044;-71
2023/01/13 08:09:20;;;;;;;9.25;8.85;;;;;;;;;;5061167;28;20017;-69
2023/01/13 08:13:16;;;;;;;8.93;8.52;;;;;;;;;;5059531;28;20395;-70
2023/01/13 08:14:31;;;;;;;9.30;8.90;;;;;;;;;;5061103;28;20447;-68
2023/01/13 08:16:56;;;;;;;9.25;8.85;;;;;;;;;;5062631;28;20031;-70
2023/01/13 08:19:22;;;;;;;9.80;9.30;;;;;;;;;;5058962;28;20012;-70
2023/01/13 08:21:47;;;;;;;9.90;9.40;;;;;;;;;;5057358;28;20056;-69
2023/01/13 08:24:12;;;;;;;9.48;9.07;;;;;;;;;;5058304;28;20135;-70
2023/01/13 08:26:37;;;;;;;9.27;8.88;;;;;;;;;;5054559;28;20448;-69
2023/01/13 08:29:03;;;;;;;10.18;9.68;;;;;;;;;;5057638;28;20032;-68
2023/01/13 08:31:28;;;;;;;9.45;9.05;;;;;;;;;;5056359;28;20835;-69
2023/01/13 08:33:53;;;;;;;9.63;9.23;;;;;;;;;;5057505;28;20032;-69
2023/01/13 08:36:19;;;;;;;10.05;9.55;;;;;;;;;;5052194;28;20048;-69
2023/01/13 08:38:44;;;;;;;9.73;9.27;;;;;;;;;;5055324;28;20029;-68
2023/01/13 08:41:11;;;;;;;9.95;9.45;;;;;;;;;;5057955;28;20013;-67
2023/01/13 08:43:36;;;;;;;10.45;9.95;;;;;;;;;;5054659;28;20388;-69
2023/01/13 08:46:03;;;;;;;10.18;9.68;;;;;;;;;;5058508;28;20025;-69
2023/01/13 08:48:29;;;;;;;9.50;9.10;;;;;;;;;;5054968;28;20017;-67
2023/01/13 08:51:00;;;;;;;10.02;9.55;;;;;;;;;;5062493;28;20025;-70
2023/01/13 08:53:25;;;;;;;9.90;9.45;;;;;;;;;;5062586;28;20059;-69
2023/01/13 08:55:51;;;;;;;10.40;9.90;;;;;;;;;;5073939;28;20018;-69
2023/01/13 08:58:16;;;;;;;10.65;10.15;;;;;;;;;;5076736;28;20506;-69
2023/01/13 09:00:41;;;;;;;10.70;10.20;;;;;;;;;;5076377;28;20453;-69
2023/01/13 09:03:07;;;;;;;10.95;10.40;;;;;;;;;;5077280;28;20112;-69
2023/01/13 09:05:33;;;;;;;10.13;9.65;;;;;;;;;;5078483;28;20509;-70
2023/01/13 09:07:59;;;;;;;10.20;9.70;;;;;;;;;;5075787;28;20451;-70
2023/01/13 09:10:24;;;;;;;9.88;9.40;;;;;;;;;;5073126;28;20024;-68
2023/01/13 09:15:33;;;;;;;9.55;9.15;;;;;;;;;;5073026;28;20047;-67
2023/01/13 09:17:59;;;;;;;10.07;9.57;;;;;;;;;;5077300;28;20411;-68
2023/01/13 09:20:24;;;;;;;10.13;9.63;;;;;;;;;;5075877;28;20017;-67
2023/01/13 09:22:49;;;;;;;10.90;10.30;;;;;;;;;;5076176;28;20379;-67
2023/01/13 09:25:15;;;;;;;11.13;10.52;;;;;;;;;;5074261;28;20028;-68
2023/01/13 09:27:40;;;;;;;9.73;9.25;;;;;;;;;;5078848;28;20024;-68
2023/01/13 09:30:06;;;;;;;9.85;9.35;;;;;;;;;;5079359;28;20023;-67
2023/01/13 09:32:31;;;;;;;9.82;9.35;;;;;;;;;;5074288;28;20013;-68
2023/01/13 09:35:00;;;;;;;9.85;9.35;;;;;;;;;;5067773;28;20467;-67
2023/01/13 09:37:29;;;;;;;10.23;9.73;;;;;;;;;;5072136;28;20017;-68
2023/01/13 09:39:54;;;;;;;9.90;9.40;;;;;;;;;;5074746;28;20446;-67
2023/01/13 09:45:12;;;;;;;10.50;10.00;;;;;;;;;;5079753;28;20395;-67
2023/01/13 09:47:43;;;;;;;9.95;9.52;;;;;;;;;;5072927;28;20400;-66
2023/01/13 09:50:14;;;;;;;10.50;10.00;;;;;;;;;;5076747;28;20457;-67
2023/01/13 09:52:40;;;;;;;10.52;10.02;;;;;;;;;;5083044;28;20052;-68
2023/01/13 09:55:27;;;;;;;10.93;10.32;;;;;;;;;;5080618;28;20415;-67
2023/01/13 09:57:52;;;;;;;11.05;10.45;;;;;;;;;;5091818;28;20030;-68
2023/01/13 10:00:25;;;;;;;10.00;9.50;;;;;;;;;;5096351;28;20012;-67
2023/01/13 10:03:00;;;;;;;9.35;8.95;;;;;;;;;;5104112;28;20165;-67
2023/01/13 10:05:31;;;;;;;10.30;9.80;;;;;;;;;;5095862;28;20024;-68
2023/01/13 10:07:58;;;;;;;10.00;9.50;;;;;;;;;;5098835;28;20044;-69
2023/01/13 10:10:43;;;;;;;9.98;9.48;;;;;;;;;;5095762;28;20068;-68
2023/01/13 10:13:29;;;;;;;11.70;11.00;;;;;;;;;;5098431;28;20028;-69
2023/01/13 10:16:03;;;;;;;9.88;9.38;;;;;;;;;;5094587;28;20093;-68
2023/01/13 10:18:29;;;;;;;10.70;10.13;;;;;;;;;;5091255;28;20026;-68
2023/01/13 10:21:04;;;;;;;9.98;9.48;;;;;;;;;;5091000;28;20035;-68
2023/01/13 10:23:33;;;;;;;10.35;9.85;;;;;;;;;;5094738;28;20028;-68
2023/01/13 10:25:58;;;;;;;9.82;9.32;;;;;;;;;;5082102;28;20058;-69
2023/01/13 10:28:25;;;;;;;10.10;9.60;;;;;;;;;;5094960;28;20056;-70
2023/01/13 10:30:50;;;;;;;9.82;9.32;;;;;;;;;;5099690;28;20168;-69
2023/01/13 10:33:17;;;;;;;10.65;10.07;;;;;;;;;;5094841;28;20024;-70
2023/01/13 10:35:45;;;;;;;9.75;9.25;;;;;;;;;;5093346;28;20023;-67
2023/01/13 10:38:15;;;;;;;10.65;10.05;;;;;;;;;;5102602;28;20056;-69
2023/01/13 10:40:45;;;;;;;10.13;9.63;;;;;;;;;;5093652;28;20478;-71
2023/01/13 10:43:11;;;;;;;9.73;9.23;;;;;;;;;;5092042;28;20039;-69
2023/01/13 10:45:36;;;;;;;9.38;8.98;;;;;;;;;;5101882;28;20016;-69
2023/01/13 10:48:04;;;;;;;10.27;9.77;;;;;;;;;;5106262;28;20016;-68
2023/01/13 10:50:30;;;;;;;10.07;9.57;;;;;;;;;;5098427;28;20382;-68
2023/01/13 10:53:00;;;;;;;10.27;9.77;;;;;;;;;;5079593;28;20028;-69
2023/01/13 10:55:33;;;;;;;9.90;9.40;;;;;;;;;;5095713;28;20028;-69
2023/01/13 10:58:11;;;;;;;10.20;9.70;;;;;;;;;;5083612;28;20020;-69
2023/01/13 11:00:36;;;;;;;9.95;9.45;;;;;;;;;;5096972;28;20016;-68
2023/01/13 11:03:22;;;;;;;9.73;9.23;;;;;;;;;;5093939;28;20028;-69
2023/01/13 11:05:52;;;;;;;10.10;9.60;;;;;;;;;;5092165;28;20031;-68
2023/01/13 11:08:19;;;;;;;10.75;10.15;;;;;;;;;;5093467;28;20407;-70
2023/01/13 11:10:47;;;;;;;10.10;9.60;;;;;;;;;;5090529;28;20028;-68
2023/01/13 11:13:15;;;;;;;10.40;9.88;;;;;;;;;;5098083;28;20038;-71
2023/01/13 11:15:40;;;;;;;9.80;9.30;;;;;;;;;;5101046;28;20012;-71
2023/01/13 11:18:18;;;;;;;9.95;9.45;;;;;;;;;;5097170;28;20023;-71
2023/01/13 11:20:44;;;;;;;10.65;10.05;;;;;;;;;;5088784;28;20023;-70
2023/01/13 11:23:24;;;;;;;10.52;9.93;;;;;;;;;;5093307;28;20099;-72
2023/01/13 11:25:52;;;;;;;10.88;10.27;;;;;;;;;;5091991;28;20019;-70
2023/01/13 11:28:36;;;;;;;9.63;9.13;;;;;;;;;;5093102;28;20514;-69
2023/01/13 11:31:07;;;;;;;9.73;9.23;;;;;;;;;;5094151;28;20483;-71
2023/01/13 11:33:51;;;;;;;10.18;9.68;;;;;;;;;;5093416;28;20394;-70
2023/01/13 11:36:35;;;;;;;9.60;9.10;;;;;;;;;;5092009;28;20024;-68
2023/01/13 11:39:20;;;;;;;9.90;9.40;;;;;;;;;;5091328;28;20164;-68
2023/01/13 11:42:22;;;;;;;11.27;10.60;;;;;;;;;;5093937;28;20039;-67
2023/01/13 11:44:51;;;;;;;10.68;10.07;;;;;;;;;;5087465;28;20036;-67
2023/01/13 11:47:19;;;;;;;10.32;9.80;;;;;;;;;;5096885;28;20043;-67
2023/01/13 11:49:47;;;;;;;9.90;9.40;;;;;;;;;;5092122;28;20042;-70
2023/01/13 11:52:15;;;;;;;10.32;9.75;;;;;;;;;;5096412;28;20024;-64
2023/01/13 11:54:49;;;;;;;9.30;8.90;;;;;;;;;;5094107;28;20106;-65
2023/01/13 11:57:15;;;;;;;9.80;9.30;;;;;;;;;;5097488;28;20409;-65
2023/01/13 11:59:51;;;;;;;9.75;9.27;;;;;;;;;;5096690;28;20016;-68
2023/01/13 12:02:29;;;;;;;10.57;9.98;;;;;;;;;;5090800;28;20870;-67
2023/01/13 12:05:13;;;;;;;10.07;9.57;;;;;;;;;;5090315;28;20067;-70
2023/01/13 12:07:57;;;;;;;10.05;9.55;;;;;;;;;;5089955;28;20063;-68
2023/01/13 12:10:40;;;;;;;11.40;10.70;;;;;;;;;;5073251;28;20042;-67
2023/01/13 12:13:13;;;;;;;9.80;9.30;;;;;;;;;;5075454;28;20024;-69
2023/01/13 12:15:54;;;;;;;9.88;9.38;;;;;;;;;;5084739;28;20031;-68
2023/01/13 12:18:25;;;;;;;9.50;9.00;;;;;;;;;;5097271;28;20020;-70
2023/01/13 12:21:06;;;;;;;9.18;8.77;;;;;;;;;;5096701;28;20016;-70
2023/01/13 12:23:34;;;;;;;10.43;9.82;;;;;;;;;;5098352;28;20023;-67
2023/01/13 12:26:07;;;;;;;10.10;9.60;;;;;;;;;;5097613;28;20020;-69
2023/01/13 12:28:54;;;;;;;9.27;8.85;;;;;;;;;;5076072;28;20026;-68
2023/01/13 12:31:20;;;;;;;9.60;9.15;;;;;;;;;;5093254;28;20510;-69
2023/01/13 12:33:52;;;;;;;9.68;9.20;;;;;;;;;;5090517;28;20071;-68
2023/01/13 12:36:24;;;;;;;10.43;9.85;;;;;;;;;;5089818;28;20074;-70
2023/01/13 12:39:13;;;;;;;11.32;10.73;;;;;;;;;;5088970;28;20012;-68
2023/01/13 12:44:15;;;;;;;11.00;10.40;;;;;;;;;;5082873;28;20047;-71
2023/01/13 12:44:27;;;;;;;10.13;9.63;;;;;;;;;;5086415;28;20028;-69
2023/01/13 12:46:55;;;;;;;10.60;10.00;;;;;;;;;;5094658;28;20024;-67
2023/01/13 12:49:26;;;;;;;10.07;9.57;;;;;;;;;;5092234;28;20016;-69
2023/01/13 12:51:51;;;;;;;9.93;9.43;;;;;;;;;;5078421;28;20027;-66
2023/01/13 12:54:28;;;;;;;10.38;9.85;;;;;;;;;;5090521;28;20135;-67
2023/01/13 12:56:54;;;;;;;9.88;9.38;;;;;;;;;;5090652;28;20031;-70
2023/01/13 12:59:19;;;;;;;9.43;9.00;;;;;;;;;;5094656;28;20102;-70
2023/01/13 13:01:48;;;;;;;9.90;9.40;;;;;;;;;;5090828;28;20493;-69
2023/01/13 13:04:17;;;;;;;10.15;9.65;;;;;;;;;;5072711;28;20107;-69
2023/01/13 13:06:43;;;;;;;10.27;9.68;;;;;;;;;;5090986;28;20027;-68
2023/01/13 13:09:28;;;;;;;9.80;9.30;;;;;;;;;;5092474;28;20012;-68
2023/01/13 13:14:48;;;;;;;9.40;9.00;;;;;;;;;;5090617;28;20028;-69
2023/01/13 13:17:28;;;;;;;10.23;9.68;;;;;;;;;;5069698;28;20024;-69
2023/01/13 13:19:58;;;;;;;9.70;9.20;;;;;;;;;;5094922;28;20027;-68
2023/01/13 13:22:26;;;;;;;11.00;10.38;;;;;;;;;;5091853;28;20016;-68
2023/01/13 13:24:55;;;;;;;10.68;10.07;;;;;;;;;;5095794;28;20020;-69
2023/01/13 13:27:41;;;;;;;10.13;9.63;;;;;;;;;;5096202;28;20050;-69
2023/01/13 13:30:22;;;;;;;10.70;10.10;;;;;;;;;;5071296;28;20028;-68
2023/01/13 13:33:06;;;;;;;10.00;9.50;;;;;;;;;;5091770;28;20086;-71
2023/01/13 13:35:50;;;;;;;10.32;9.73;;;;;;;;;;5072704;28;20062;-67
2023/01/13 13:47:05;;;;;;;9.80;9.30;;;;;;;;;;5100776;28;20192;-73
2023/01/13 13:49:39;;;;;;;9.52;9.05;;;;;;;;;;5100828;28;20089;-72
2023/01/13 13:52:16;;;;;;;10.05;9.55;;;;;;;;;;5082232;28;20012;-71
2023/01/13 13:54:44;;;;;;;10.85;10.25;;;;;;;;;;5092788;28;20459;-70
2023/01/13 13:57:20;;;;;;;10.70;10.10;;;;;;;;;;5101414;28;20047;-70
2023/01/13 13:59:48;;;;;;;9.73;9.23;;;;;;;;;;5074597;28;20064;-71
2023/01/13 14:02:26;;;;;;;10.00;9.50;;;;;;;;;;5102495;28;20112;-71
2023/01/13 14:05:05;;;;;;;9.52;9.02;;;;;;;;;;5097329;28;20034;-70
2023/01/13 14:07:30;;;;;;;10.50;9.90;;;;;;;;;;5101140;28;20023;-72
2023/01/13 14:09:56;;;;;;;10.20;9.70;;;;;;;;;;5107221;28;20421;-72
2023/01/13 14:12:25;;;;;;;10.50;9.90;;;;;;;;;;5102475;28;20054;-72
2023/01/13 14:14:53;;;;;;;10.45;9.88;;;;;;;;;;5100365;28;20106;-71
2023/01/13 14:17:20;;;;;;;10.50;9.90;;;;;;;;;;5101875;28;20443;-71
2023/01/13 14:19:50;;;;;;;10.68;10.07;;;;;;;;;;5099879;28;20043;-71
2023/01/13 14:22:17;;;;;;;9.38;8.90;;;;;;;;;;5092290;28;20111;-72
2023/01/13 14:24:46;;;;;;;11.48;10.77;;;;;;;;;;5082151;28;20019;-71
2023/01/13 14:27:16;;;;;;;9.70;9.23;;;;;;;;;;5100714;28;20031;-71
2023/01/13 14:29:41;;;;;;;10.82;10.23;;;;;;;;;;5086524;28;20041;-71
2023/01/13 14:32:07;;;;;;;9.70;9.20;;;;;;;;;;5092873;28;20020;-71
2023/01/13 14:34:33;;;;;;;9.52;9.02;;;;;;;;;;5097186;28;20031;-70
2023/01/13 14:36:59;;;;;;;9.98;9.48;;;;;;;;;;5098994;28;20016;-70
2023/01/13 14:39:32;;;;;;;9.70;9.20;;;;;;;;;;5097089;28;20054;-71
2023/01/13 14:41:57;;;;;;;9.75;9.25;;;;;;;;;;5107227;28;20019;-72
2023/01/13 14:44:26;;;;;;;10.43;9.82;;;;;;;;;;5097294;28;20020;-71
2023/01/13 14:46:54;;;;;;;10.38;9.77;;;;;;;;;;5099415;28;20140;-71
2023/01/13 14:49:37;;;;;;;10.65;10.05;;;;;;;;;;5094537;28;20023;-70
2023/01/13 14:52:05;;;;;;;9.98;9.48;;;;;;;;;;5095914;28;20083;-72
2023/01/13 14:54:42;;;;;;;9.32;8.88;;;;;;;;;;5080448;28;20121;-71
2023/01/13 14:57:13;;;;;;;9.52;9.02;;;;;;;;;;5082927;28;20026;-71
2023/01/13 14:59:39;;;;;;;9.68;9.18;;;;;;;;;;5093216;28;20017;-71
2023/01/13 15:02:23;;;;;;;9.80;9.30;;;;;;;;;;5101499;28;20023;-72
2023/01/13 15:04:52;;;;;;;8.95;8.55;;;;;;;;;;5097091;28;20110;-71
2023/01/13 15:07:23;;;;;;;9.55;9.05;;;;;;;;;;5102207;28;20475;-71
2023/01/13 15:09:51;;;;;;;9.88;9.38;;;;;;;;;;5101948;28;20032;-70
2023/01/13 15:12:31;;;;;;;9.00;8.60;;;;;;;;;;5082548;28;20478;-72
2023/01/13 15:14:56;;;;;;;9.80;9.30;;;;;;;;;;5071735;28;20039;-71
2023/01/13 15:17:21;;;;;;;8.95;8.55;;;;;;;;;;5099624;28;20016;-72
2023/01/13 15:19:47;;;;;;;9.52;9.02;;;;;;;;;;5096865;28;20016;-72
2023/01/13 15:22:12;;;;;;;9.70;9.20;;;;;;;;;;5098981;28;20028;-71
2023/01/13 15:24:37;;;;;;;9.57;9.07;;;;;;;;;;5080395;28;20028;-71
2023/01/13 15:27:03;;;;;;;9.75;9.25;;;;;;;;;;5104744;28;20028;-71
2023/01/13 15:29:28;;;;;;;9.73;9.23;;;;;;;;;;5095997;28;20371;-70
2023/01/13 15:31:54;;;;;;;10.70;10.10;;;;;;;;;;5089789;28;20032;-71
2023/01/13 15:34:19;;;;;;;9.10;8.70;;;;;;;;;;5100000;28;20016;-72
2023/01/13 15:36:44;;;;;;;9.75;9.25;;;;;;;;;;5095153;28;20519;-70